METAR Data
IDs: Format: Raw Decoded Include TAF

Data at: 0538 UTC 24 Sep 2018

KBML 240452Z AUTO 00000KT 10SM FEW035 SCT050 06/05 A3041 RMK AO2 SLP304 T00560050 401890000
KBML 240413Z AUTO 00000KT 10SM SCT017 OVC055 07/06 A3039 RMK AO2 T00670061
KBML 240352Z AUTO 33003KT 10SM BKN018 OVC055 08/06 A3039 RMK AO2 SLP295 T00780061
KBML 240336Z AUTO 36003KT 10SM BKN019 BKN055 BKN075 07/06 A3038 RMK AO2 T00670056
KBML 240252Z AUTO 00000KT 10SM CLR 06/05 A3036 RMK AO2 SLP289 T00560050 53024
KBML 240152Z AUTO 00000KT 10SM FEW100 OVC110 08/07 A3034 RMK AO2 SLP281 T00780067
KBML 240052Z AUTO 00000KT 10SM FEW110 08/06 A3031 RMK AO2 SLP274 T00780061
KBML 232352Z AUTO 00000KT 10SM BKN110 09/07 A3029 RMK AO2 SLP267 T00940072 10189 20083 53024
KBML 232252Z AUTO 33003KT 10SM BKN110 13/07 A3026 RMK AO2 SLP255 T01280067
KBML 232152Z AUTO VRB03KT 10SM OVC110 16/04 A3023 RMK AO2 SLP246 T01610044
KBML 232052Z AUTO 00000KT 10SM FEW050 18/06 A3021 RMK AO2 SLP238 T01780061 53002
KBML 231952Z AUTO VRB05KT 10SM FEW120 18/05 A3021 RMK AO2 SLP236 T01780050
KBML 231852Z AUTO 00000KT 10SM CLR 18/04 A3020 RMK AO2 SLP234 T01780044
KBML 231752Z AUTO 32006KT 10SM CLR 18/03 A3021 RMK AO2 SLP236 T01780033 10178 20006 56017
KBML 231652Z AUTO VRB05KT 10SM CLR 17/04 A3022 RMK AO2 SLP240 T01670039
KBML 231552Z AUTO 20004KT 10SM CLR 15/04 A3024 RMK AO2 SLP248 T01500039
KBML 231452Z AUTO 00000KT 10SM CLR 13/05 A3026 RMK AO2 SLP255 T01280050 58001
KBML 231352Z AUTO 00000KT 10SM CLR 08/06 A3027 RMK AO2 SLP262 T00830056
KBML 231330Z AUTO 00000KT 10SM SCT002 06/05 A3028 RMK AO2 T00610050
KBML 231315Z AUTO 00000KT 3SM BR BKN002 05/04 A3028 RMK AO2 T00500044
KBML 231306Z AUTO 00000KT 1 3/4SM BR OVC002 04/03 A3028 RMK AO2 VIS 3/4V5 T00390033
KBML 231301Z AUTO 00000KT 5SM BR OVC002 04/03 A3028 RMK AO2 T00390033
KBML 231252Z AUTO 00000KT 2 1/2SM BR OVC002 03/03 A3027 RMK AO2 VIS 1 1/2V4 SLP262 T00330028
KBML 231243Z AUTO 00000KT 4SM BR OVC002 03/03 A3027 RMK AO2 T00330028
KBML 231236Z AUTO 00000KT 2 1/2SM BR OVC002 02/02 A3027 RMK AO2 T00220017
KBML 231234Z AUTO 00000KT 1SM BR VV002 02/02 A3027 RMK AO2 T00220017
KBML 231214Z AUTO 00000KT 1/4SM FG VV002 01/01 A3026 RMK AO2 T00110011
KBML 231152Z AUTO 00000KT M1/4SM FG VV001 01/01 A3026 RMK AO2 SLP260 I1000 I6000 T00060006 10017 20000 50005
KBML 231052Z AUTO 00000KT M1/4SM FG VV001 00/00 A3027 RMK AO2 SLP260 T00000000
KBML 230952Z AUTO 00000KT 1/4SM FG VV001 00/M01 A3026 RMK AO2 SLP259 T00001006
KBML 230852Z AUTO 00000KT 1/4SM FG VV001 00/00 A3025 RMK AO2 SLP251 I3000 T00000000 51001
KBML 230815Z AUTO 00000KT 1/4SM FG VV001 00/00 A3025 RMK AO2 T00000000
KBML 230806Z AUTO 00000KT 1/2SM FG VV001 01/01 A3025 RMK AO2 T00060006
KBML 230752Z AUTO 00000KT 1/4SM FG VV001 01/01 A3025 RMK AO2 SLP250 I1000 T00060006
KBML 230743Z AUTO 00000KT 1/4SM FG VV001 01/01 A3025 RMK AO2 I1000 T00060006
KBML 230733Z AUTO 00000KT 1/2SM FG VV001 01/00 A3025 RMK AO2 I1000 T00060000
KBML 230652Z AUTO 00000KT 1/4SM FG VV001 01/01 A3025 RMK AO2 SLP250 T00110011
KBML 230552Z AUTO 00000KT M1/4SM FG VV001 01/01 A3024 RMK AO2 SLP249 T00110006 10067 20000 55002
KBML 230510Z AUTO 00000KT 1/4SM FG VV001 01/00 A3023 RMK AO2 T00060000
KBML 230505Z AUTO 00000KT 1 1/4SM BR BKN001 01/00 A3024 RMK AO2 T00060000
KBML 230503Z AUTO 00000KT 3SM BR BKN001 01/M01 A3024 RMK AO2 T00061006
KBML 230456Z AUTO 00000KT 2 1/2SM BR BKN001 01/00 A3023 RMK AO2 T00060000
KBML 230452Z AUTO 00000KT 1 1/4SM BR BKN001 01/00 A3023 RMK AO2 SLP246 T00060000 402110006
KBML 230448Z AUTO 00000KT 1 1/4SM BR BKN001 01/00 A3024 RMK AO2
KBML 230438Z AUTO 00000KT 10SM BKN001 01/00 A3024 RMK AO2 T00060000
KBML 230431Z AUTO 00000KT 1 1/2SM BR OVC001 01/00 A3024 RMK AO2 T00060000
KBML 230414Z AUTO 00000KT 1/2SM FG VV001 01/01 A3024 RMK AO2 T00110006
KBML 230407Z AUTO 00000KT 1 1/4SM BR OVC001 02/01 A3024 RMK AO2 T00170006
KBML 230352Z AUTO 00000KT 10SM BKN001 02/01 A3024 RMK AO2 SLP247 T00170006
KBML 230326Z AUTO 00000KT 10SM SCT001 02/01 A3024 RMK AO2 T00220011
KBML 230311Z AUTO 00000KT 10SM BKN001 02/01 A3025 RMK AO2 T00170011
KBML 230302Z AUTO 00000KT 10SM SCT001 03/02 A3025 RMK AO2 T00280017
KBML 230252Z AUTO 00000KT 10SM CLR 03/02 A3025 RMK AO2 SLP252 T00280022 53009
KBML 230223Z AUTO 00000KT 10SM FEW001 02/02 A3025 RMK AO2 T00220022
KBML 230152Z AUTO 00000KT 10SM CLR 04/03 A3024 RMK AO2 SLP247 T00390028
KBML 230052Z AUTO 00000KT 10SM CLR 05/04 A3023 RMK AO2 SLP245 T00500039
KBML 222352Z AUTO 00000KT 10SM CLR 07/05 A3022 RMK AO2 SLP240 T00670050 10167 20061 53020
KBML 222252Z AUTO 00000KT 10SM CLR 08/05 A3020 RMK AO2 SLP232 T00830050
KBML 222152Z AUTO 34006KT 10SM CLR 12/04 A3018 RMK AO2 SLP221 T01220039
KBML 222052Z AUTO 33006KT 10SM CLR 14/03 A3016 RMK AO2 SLP214 T01390033 53005
KBML 221952Z AUTO 33007KT 10SM CLR 16/03 A3015 RMK AO2 SLP208 T01610028
KBML 221852Z AUTO 32009G16KT 10SM CLR 16/03 A3014 RMK AO2 SLP207 T01610033
KBML 221752Z AUTO 34008KT 10SM BKN046 16/04 A3015 RMK AO2 SLP207 T01560039 10156 20111 51009